Terminal Aerodrome Forecast
Issued by NWS

Home | Current Version | Previous Version | Text Only | Print | Product List | Glossary On
Versions: 1 2 3 4 5 6 7 8 9 10 11 12 13 14 15 16 17 18 19 20 21 22 23 24 25 26 27 28
000
FTUS44 KSJT 050000 AAA
TAFSOA
TAF AMD
KSOA 050009Z 0500/0524 01018G27KT P6SM -RA OVC009
      TEMPO 0500/0502 6SM -TSRAPL BR OVC005CB
     FM050200 02020G30KT 4SM -FZRA BR OVC006
     FM050500 02021G31KT 4SM -FZRAPL BR OVC006
     FM051500 02015G22KT P6SM SCT100 BKN250=

USA.gov is the U.S. government's official web portal to all federal, state and local government web resources and services.